Time;durP1;ratioP1;P1;durP2;ratioP2;P2;SDS_P1;SDS_P2;PMS_P1;PMS_P2;Temp;Humidity;BMP_temperature;BMP_pressure;BME280_temperature;BME280_humidity;BME280_pressure;Samples;Min_cycle;Max_cycle;Signal;HPM_P1;HPM_P2
2023/02/13 00:00:32;;;;;;;32.70;17.40;;;8.90;91.90;;;;;;5058617;28;20486;-82
2023/02/13 00:02:57;;;;;;;33.17;16.60;;;8.80;91.90;;;;;;5075727;28;20104;-83
2023/02/13 00:05:23;;;;;;;27.87;15.67;;;8.80;91.80;;;;;;5058045;28;20119;-82
2023/02/13 00:07:49;;;;;;;28.77;16.00;;;8.80;91.80;;;;;;5057908;28;20062;-82
2023/02/13 00:10:14;;;;;;;31.17;15.73;;;8.80;92.10;;;;;;5076502;28;20040;-82
2023/02/13 00:12:40;;;;;;;30.17;16.67;;;8.80;91.90;;;;;;5074533;28;20445;-82
2023/02/13 00:15:07;;;;;;;30.03;15.00;;;8.80;91.90;;;;;;5074626;28;20621;-82
2023/02/13 00:17:32;;;;;;;28.27;15.33;;;8.80;91.90;;;;;;5057866;28;20067;-82
2023/02/13 00:19:58;;;;;;;25.10;12.97;;;8.80;91.90;;;;;;5074606;28;20064;-82
2023/02/13 00:22:23;;;;;;;27.67;14.37;;;8.80;91.90;;;;;;5057471;28;20049;-82
2023/02/13 00:24:49;;;;;;;26.77;14.93;;;8.80;91.90;;;;;;5091871;28;20033;-82
2023/02/13 00:27:15;;;;;;;28.50;15.07;;;8.80;91.90;;;;;;5057930;28;20385;-82
2023/02/13 00:29:41;;;;;;;27.97;15.53;;;8.80;91.90;;;;;;5074432;28;20032;-82
2023/02/13 00:32:07;;;;;;;27.63;15.23;;;8.70;91.90;;;;;;5074584;28;20039;-82
2023/02/13 00:34:33;;;;;;;27.80;15.37;;;8.70;91.90;;;;;;5074150;28;20025;-82
2023/02/13 00:36:58;;;;;;;29.77;15.67;;;8.70;92.00;;;;;;5091207;28;20029;-82
2023/02/13 00:39:24;;;;;;;29.77;15.27;;;8.70;92.00;;;;;;5090745;28;20033;-82
2023/02/13 00:41:50;;;;;;;26.77;14.37;;;8.70;92.00;;;;;;5057841;28;20138;-82
2023/02/13 00:44:15;;;;;;;26.20;14.40;;;8.60;92.00;;;;;;5075620;28;20353;-82
2023/02/13 00:46:41;;;;;;;27.20;15.33;;;8.60;92.10;;;;;;5074327;28;20036;-82
2023/02/13 00:49:07;;;;;;;30.10;14.53;;;8.70;92.40;;;;;;5074515;28;20032;-82
2023/02/13 00:51:32;;;;;;;25.73;14.97;;;8.70;92.10;;;;;;5074139;28;20052;-82
2023/02/13 00:53:58;;;;;;;26.33;14.07;;;8.70;92.20;;;;;;5057436;28;20426;-82
2023/02/13 00:56:23;;;;;;;26.80;14.17;;;8.70;92.20;;;;;;5091194;28;20464;-82
2023/02/13 00:58:49;;;;;;;26.07;14.23;;;8.60;92.20;;;;;;5057494;28;20066;-82
2023/02/13 01:01:15;;;;;;;26.23;13.30;;;8.70;92.20;;;;;;5075155;28;20020;-82
2023/02/13 01:03:40;;;;;;;27.33;16.17;;;8.70;92.30;;;;;;5074063;28;20054;-82
2023/02/13 01:06:06;;;;;;;25.57;14.10;;;8.70;92.30;;;;;;5073697;28;20033;-82
2023/02/13 01:08:33;;;;;;;30.37;15.60;;;8.70;92.30;;;;;;5073590;28;20873;-82
2023/02/13 01:10:58;;;;;;;26.53;14.57;;;8.70;92.30;;;;;;5057148;28;20540;-82
2023/02/13 01:13:25;;;;;;;27.67;14.60;;;8.70;92.30;;;;;;5075864;28;20103;-82
2023/02/13 01:15:51;;;;;;;26.77;14.87;;;8.70;92.40;;;;;;5074801;28;20081;-82
2023/02/13 01:18:18;;;;;;;26.33;15.17;;;8.70;92.40;;;;;;5073247;28;20440;-82
2023/02/13 01:20:45;;;;;;;27.53;14.30;;;8.70;92.40;;;;;;5073673;28;20041;-82
2023/02/13 01:23:11;;;;;;;27.57;14.40;;;8.70;92.40;;;;;;5056789;28;20048;-82
2023/02/13 01:25:41;;;;;;;28.27;14.47;;;8.70;92.40;;;;;;5073539;28;20060;-82
2023/02/13 01:28:07;;;;;;;30.47;15.20;;;8.70;92.40;;;;;;5073224;28;20024;-82
2023/02/13 01:30:33;;;;;;;26.63;14.70;;;8.60;92.30;;;;;;5056543;28;20677;-82
2023/02/13 01:32:58;;;;;;;27.00;14.80;;;8.70;92.40;;;;;;5072965;28;20051;-82
2023/02/13 01:35:24;;;;;;;25.93;14.93;;;8.60;92.40;;;;;;5056299;28;20493;-82
2023/02/13 01:37:49;;;;;;;28.40;14.77;;;8.70;92.50;;;;;;5056613;28;20028;-82
2023/02/13 01:40:16;;;;;;;26.30;14.40;;;8.70;92.50;;;;;;5056597;28;20431;-82
2023/02/13 01:42:42;;;;;;;29.90;16.00;;;8.70;92.50;;;;;;5073503;28;20028;-82
2023/02/13 01:45:29;;;;;;;30.10;15.20;;;8.70;92.50;;;;;;5072916;28;20048;-82
2023/02/13 01:48:22;;;;;;;27.20;14.63;;;8.70;92.50;;;;;;5073425;28;20115;-82
2023/02/13 01:51:03;;;;;;;27.60;15.67;;;8.70;92.50;;;;;;5070960;28;20033;-82
2023/02/13 01:53:41;;;;;;;28.30;15.00;;;8.70;92.50;;;;;;5072659;28;20024;-82
2023/02/13 01:56:22;;;;;;;26.37;13.93;;;8.70;92.50;;;;;;5107496;28;20039;-82
2023/02/13 01:58:53;;;;;;;29.93;16.40;;;8.70;92.50;;;;;;5106454;28;20031;-82
2023/02/13 02:01:20;;;;;;;28.73;15.33;;;8.70;92.50;;;;;;5072393;28;20028;-82
2023/02/13 02:03:59;;;;;;;28.33;15.50;;;8.70;92.60;;;;;;5072746;28;20028;-82
2023/02/13 02:06:31;;;;;;;28.33;15.27;;;8.70;92.60;;;;;;5073310;28;20737;-82
2023/02/13 02:09:01;;;;;;;31.80;15.53;;;8.70;92.60;;;;;;5073603;28;20020;-82
2023/02/13 02:11:49;;;;;;;31.70;15.43;;;8.60;92.60;;;;;;5072721;28;20403;-82
2023/02/13 02:14:15;;;;;;;30.67;15.97;;;8.60;92.70;;;;;;5074088;28;20040;-82
2023/02/13 02:16:40;;;;;;;29.37;16.17;;;8.70;92.70;;;;;;5073128;28;20074;-82
2023/02/13 02:19:31;;;;;;;30.57;17.17;;;8.70;92.70;;;;;;5074144;28;20033;-82
2023/02/13 02:22:15;;;;;;;32.73;16.67;;;8.70;92.70;;;;;;5068694;28;20405;-82
2023/02/13 02:24:51;;;;;;;30.07;17.50;;;8.70;92.80;;;;;;5073182;28;20051;-82
2023/02/13 02:27:31;;;;;;;31.30;15.60;;;8.70;92.80;;;;;;5072779;28;20071;-82
2023/02/13 02:30:38;;;;;;;33.10;17.20;;;8.70;92.80;;;;;;5072454;28;20021;-82
2023/02/13 02:33:09;;;;;;;29.63;16.80;;;8.70;92.80;;;;;;5057849;28;20028;-82
2023/02/13 02:36:12;;;;;;;30.77;15.97;;;8.70;92.80;;;;;;5072463;28;20021;-82
2023/02/13 02:38:38;;;;;;;33.40;17.77;;;8.70;92.90;;;;;;5072202;28;20030;-82
2023/02/13 02:41:10;;;;;;;35.17;17.77;;;8.70;92.90;;;;;;5072271;28;20049;-82
2023/02/13 02:43:47;;;;;;;32.70;16.50;;;8.70;92.90;;;;;;5073193;28;20028;-82
2023/02/13 02:46:38;;;;;;;31.60;17.40;;;8.70;92.90;;;;;;5071702;28;20036;-82
2023/02/13 02:52:09;;;;;;;34.70;17.87;;;8.70;93.00;;;;;;5073474;28;20545;-82
2023/02/13 02:55:06;;;;;;;29.70;16.33;;;8.70;93.10;;;;;;5073182;28;20107;-82
2023/02/13 03:06:12;;;;;;;32.63;17.57;;;8.70;93.10;;;;;;5073040;28;20122;-82
2023/02/13 03:14:16;;;;;;;31.20;17.23;;;8.70;93.10;;;;;;5073427;28;20043;-82
2023/02/13 03:22:26;;;;;;;33.87;17.37;;;8.70;93.20;;;;;;5073518;28;19923;-82
2023/02/13 03:25:10;;;;;;;32.63;17.27;;;8.70;93.20;;;;;;5073078;28;20082;-82
2023/02/13 03:30:50;;;;;;;31.63;16.93;;;8.70;93.20;;;;;;5073033;28;20691;-82
2023/02/13 03:33:23;;;;;;;32.07;16.40;;;8.70;93.20;;;;;;5071419;28;20553;-82
2023/02/13 03:39:09;;;;;;;37.97;18.77;;;8.70;93.40;;;;;;5073186;28;20086;-82
2023/02/13 03:41:49;;;;;;;37.53;19.93;;;8.70;93.40;;;;;;5071563;28;20040;-82
2023/02/13 03:44:19;;;;;;;33.53;19.00;;;8.70;93.50;;;;;;5071505;28;20020;-82
2023/02/13 03:46:50;;;;;;;37.83;19.37;;;8.70;93.50;;;;;;5072825;28;20025;-82
2023/02/13 03:52:47;;;;;;;37.17;19.03;;;8.70;93.50;;;;;;5072723;28;20403;-82
2023/02/13 04:01:08;;;;;;;29.80;16.97;;;8.70;93.90;;;;;;5076012;28;20054;-82
2023/02/13 04:03:47;;;;;;;33.97;18.50;;;8.70;93.60;;;;;;5074890;28;20479;-82
2023/02/13 04:06:17;;;;;;;34.70;19.20;;;8.70;93.60;;;;;;5074714;28;20103;-83
2023/02/13 04:08:43;;;;;;;37.87;19.93;;;8.70;93.70;;;;;;5074722;28;20123;-82
2023/02/13 04:11:24;;;;;;;34.83;19.00;;;8.70;93.70;;;;;;5058374;28;20148;-82
2023/02/13 04:14:22;;;;;;;39.97;19.20;;;8.70;93.80;;;;;;5074745;28;20141;-82
2023/02/13 04:17:03;;;;;;;38.57;20.80;;;8.70;93.80;;;;;;5067098;28;20029;-82
2023/02/13 04:19:29;;;;;;;37.03;19.50;;;8.70;93.80;;;;;;5108397;28;20028;-83
2023/02/13 04:21:58;;;;;;;35.20;20.43;;;8.70;93.80;;;;;;5057812;28;20033;-82
2023/02/13 04:24:24;;;;;;;37.87;20.83;;;8.70;93.90;;;;;;5074697;28;20028;-82
2023/02/13 04:26:51;;;;;;;39.93;21.27;;;8.60;93.90;;;;;;5074722;28;20078;-83
2023/02/13 04:29:17;;;;;;;36.10;20.60;;;8.70;94.00;;;;;;5074600;28;20119;-82
2023/02/13 04:31:42;;;;;;;39.60;21.47;;;8.70;94.00;;;;;;5074318;28;20543;-82
2023/02/13 04:34:08;;;;;;;38.80;20.67;;;8.70;94.00;;;;;;5058054;28;20074;-82
2023/02/13 04:36:33;;;;;;;39.37;20.97;;;8.70;94.10;;;;;;5057566;28;20469;-83
2023/02/13 04:38:59;;;;;;;45.07;22.47;;;8.70;94.20;;;;;;5075497;28;20031;-83
2023/02/13 04:41:25;;;;;;;37.73;21.13;;;8.70;94.20;;;;;;5074406;28;20036;-83
2023/02/13 04:43:51;;;;;;;38.20;21.37;;;8.70;94.20;;;;;;5057327;28;20099;-83
2023/02/13 04:46:17;;;;;;;38.70;20.50;;;8.70;94.30;;;;;;5057459;28;20021;-83
2023/02/13 04:48:43;;;;;;;37.00;20.83;;;8.70;94.30;;;;;;5075410;28;20103;-82
2023/02/13 04:51:08;;;;;;;39.23;20.63;;;8.70;94.30;;;;;;5074104;28;20040;-82
2023/02/13 04:53:34;;;;;;;39.53;21.13;;;8.70;94.30;;;;;;5074116;28;20082;-82
2023/02/13 04:55:59;;;;;;;37.10;19.53;;;8.70;94.40;;;;;;5075689;28;20032;-82
2023/02/13 04:58:25;;;;;;;40.70;22.00;;;8.70;94.40;;;;;;5073944;28;20110;-82
2023/02/13 05:00:51;;;;;;;39.27;21.53;;;8.70;94.50;;;;;;5075147;28;20114;-82
2023/02/13 05:03:16;;;;;;;35.50;20.10;;;8.80;94.50;;;;;;5057011;28;20051;-82
2023/02/13 05:05:43;;;;;;;35.97;20.10;;;8.70;94.50;;;;;;5073785;28;20063;-81
2023/02/13 05:08:10;;;;;;;37.33;20.67;;;8.70;94.60;;;;;;5089668;28;20032;-82
2023/02/13 05:10:36;;;;;;;38.87;21.30;;;8.70;94.60;;;;;;5107282;28;20021;-82
2023/02/13 05:13:02;;;;;;;36.63;20.67;;;8.70;94.60;;;;;;5057414;28;20060;-82
2023/02/13 05:15:28;;;;;;;42.93;21.90;;;8.70;94.60;;;;;;5056632;28;20024;-82
2023/02/13 05:17:53;;;;;;;39.40;21.73;;;8.70;94.60;;;;;;5073707;28;20055;-82
2023/02/13 05:20:19;;;;;;;41.13;21.67;;;8.70;94.60;;;;;;5056675;28;20094;-82
2023/02/13 05:25:35;;;;;;;37.30;20.20;;;8.70;94.60;;;;;;5073824;28;20047;-82
2023/02/13 05:28:00;;;;;;;39.67;21.57;;;8.70;94.70;;;;;;5074419;28;20082;-82
2023/02/13 05:30:26;;;;;;;40.77;21.63;;;8.70;94.70;;;;;;5090257;28;20028;-81
2023/02/13 05:32:53;;;;;;;37.03;20.47;;;8.70;94.70;;;;;;5091726;28;20115;-81
2023/02/13 05:35:20;;;;;;;36.47;20.80;;;8.70;94.80;;;;;;5067471;28;20024;-82
2023/02/13 05:37:46;;;;;;;40.50;21.90;;;8.60;94.80;;;;;;5082481;28;20034;-82
2023/02/13 05:40:12;;;;;;;42.40;23.10;;;8.70;94.80;;;;;;5127097;27;20028;-82
2023/02/13 05:42:41;;;;;;;38.30;21.30;;;8.70;94.80;;;;;;5080782;28;20028;-81
2023/02/13 05:45:08;;;;;;;40.70;21.40;;;8.70;94.90;;;;;;5102435;28;20032;-81
2023/02/13 05:47:34;;;;;;;41.60;21.57;;;8.60;94.90;;;;;;5108288;28;20055;-81
2023/02/13 05:50:00;;;;;;;39.57;20.47;;;8.60;94.90;;;;;;5089934;28;20508;-81
2023/02/13 05:52:25;;;;;;;42.17;21.23;;;8.70;95.00;;;;;;5055239;28;20039;-82
2023/02/13 05:54:51;;;;;;;49.93;19.57;;;8.60;95.00;;;;;;5074267;28;20102;-82
2023/02/13 05:57:17;;;;;;;42.00;21.43;;;8.70;95.00;;;;;;5054982;28;20024;-82
2023/02/13 05:59:43;;;;;;;41.90;21.03;;;8.70;95.10;;;;;;5055066;28;20545;-82
2023/02/13 06:02:08;;;;;;;37.80;19.37;;;8.60;95.10;;;;;;5073568;28;20048;-82
2023/02/13 06:04:34;;;;;;;36.00;21.07;;;8.60;95.10;;;;;;5073392;28;20465;-82
2023/02/13 06:07:00;;;;;;;40.20;21.13;;;8.70;95.20;;;;;;5072331;28;20110;-82
2023/02/13 06:09:25;;;;;;;37.73;20.83;;;8.70;95.20;;;;;;5088683;28;20392;-82
2023/02/13 06:11:51;;;;;;;36.80;20.33;;;8.60;95.20;;;;;;5055778;28;20030;-82
2023/02/13 06:14:17;;;;;;;35.00;19.03;;;8.60;95.20;;;;;;5056122;28;20028;-82
2023/02/13 06:16:42;;;;;;;37.80;20.87;;;8.70;95.30;;;;;;5055797;28;20021;-82
2023/02/13 06:19:08;;;;;;;38.27;21.00;;;8.70;95.40;;;;;;5071943;28;20043;-82
2023/02/13 06:21:36;;;;;;;33.97;19.73;;;8.70;95.40;;;;;;5055659;28;20025;-82
2023/02/13 06:24:03;;;;;;;36.80;21.00;;;8.70;95.40;;;;;;5073764;28;20075;-82
2023/02/13 06:26:29;;;;;;;34.37;19.50;;;8.70;95.40;;;;;;5072676;28;20039;-82
2023/02/13 06:28:55;;;;;;;38.63;21.10;;;8.70;95.40;;;;;;5072999;28;20391;-82
2023/02/13 06:31:21;;;;;;;35.40;19.60;;;8.70;95.40;;;;;;5089566;28;20492;-83
2023/02/13 06:33:46;;;;;;;34.57;19.93;;;8.70;95.40;;;;;;5086539;28;20036;-82
2023/02/13 06:36:12;;;;;;;38.27;21.63;;;8.80;95.40;;;;;;5094568;28;20409;-82
2023/02/13 06:38:37;;;;;;;38.03;21.23;;;8.70;95.40;;;;;;5107929;28;20023;-82
2023/02/13 06:41:03;;;;;;;36.73;20.40;;;8.70;95.40;;;;;;5089668;28;20036;-82
2023/02/13 06:43:29;;;;;;;34.03;19.23;;;8.80;95.50;;;;;;5092424;28;20024;-82
2023/02/13 06:45:55;;;;;;;33.63;19.73;;;8.70;95.40;;;;;;5107964;28;20024;-82
2023/02/13 06:48:21;;;;;;;36.43;20.43;;;8.70;95.50;;;;;;5126387;27;20028;-82
2023/02/13 06:50:46;;;;;;;36.50;20.17;;;8.70;95.50;;;;;;5109126;28;20024;-82
2023/02/13 06:53:12;;;;;;;38.07;21.97;;;8.70;95.50;;;;;;5126225;27;20028;-82
2023/02/13 06:55:38;;;;;;;31.60;18.33;;;8.70;95.50;;;;;;5125687;27;20024;-82
2023/02/13 06:58:04;;;;;;;36.03;19.43;;;8.70;95.60;;;;;;5092753;28;20024;-82
2023/02/13 07:00:30;;;;;;;34.13;19.57;;;8.70;95.60;;;;;;5093265;28;20056;-82
2023/02/13 07:03:02;;;;;;;33.57;18.80;;;8.60;95.60;;;;;;5108955;28;20048;-82
2023/02/13 07:05:28;;;;;;;37.20;19.77;;;8.60;95.60;;;;;;5126016;27;20024;-82
2023/02/13 07:07:53;;;;;;;35.90;20.63;;;8.60;95.60;;;;;;5091732;28;20436;-82
2023/02/13 07:10:19;;;;;;;34.87;19.93;;;8.60;95.60;;;;;;5092818;28;20430;-82
2023/02/13 07:12:45;;;;;;;36.60;19.93;;;8.60;95.60;;;;;;5126140;28;20050;-82
2023/02/13 07:15:10;;;;;;;36.50;19.87;;;8.60;95.60;;;;;;5094531;28;20033;-82
2023/02/13 07:17:36;;;;;;;34.13;18.83;;;8.50;95.60;;;;;;5092336;28;20483;-82
2023/02/13 07:20:03;;;;;;;33.67;19.40;;;8.50;95.60;;;;;;5092685;28;20036;-81
2023/02/13 07:22:33;;;;;;;34.67;20.40;;;8.50;95.70;;;;;;5093081;28;20593;-81
2023/02/13 07:24:59;;;;;;;33.17;18.80;;;8.50;95.70;;;;;;5109731;28;20065;-82
2023/02/13 07:27:28;;;;;;;38.60;21.07;;;8.40;95.70;;;;;;5108862;28;20024;-82
2023/02/13 07:29:56;;;;;;;34.97;20.40;;;8.40;95.80;;;;;;5092322;28;20032;-81
2023/02/13 07:32:23;;;;;;;39.60;20.10;;;8.40;95.90;;;;;;5111819;28;20610;-82
2023/02/13 07:34:49;;;;;;;35.20;21.20;;;8.40;96.00;;;;;;5096386;28;20056;-81
2023/02/13 07:37:14;;;;;;;36.33;21.10;;;8.30;96.10;;;;;;5097216;28;20060;-81
2023/02/13 07:39:40;;;;;;;34.00;19.93;;;8.40;96.20;;;;;;5112684;28;20067;-81
2023/02/13 07:42:05;;;;;;;35.83;19.53;;;8.30;96.20;;;;;;5095928;28;20024;-81
2023/02/13 07:44:31;;;;;;;30.57;18.80;;;8.30;96.30;;;;;;5113124;28;20036;-82
2023/02/13 07:46:57;;;;;;;32.23;20.10;;;8.30;96.40;;;;;;5112700;28;20028;-82
2023/02/13 07:49:24;;;;;;;34.87;20.57;;;8.30;96.50;;;;;;5095679;28;20035;-82
2023/02/13 07:51:50;;;;;;;35.17;20.37;;;8.30;96.60;;;;;;5112008;28;20467;-81
2023/02/13 07:54:15;;;;;;;32.53;19.63;;;8.40;96.60;;;;;;5095593;28;20384;-82
2023/02/13 07:56:41;;;;;;;31.47;19.10;;;8.40;96.70;;;;;;5095688;28;20036;-82
2023/02/13 07:59:07;;;;;;;36.80;20.73;;;8.40;96.70;;;;;;5112922;28;20035;-81
2023/02/13 08:01:32;;;;;;;36.07;21.37;;;8.40;96.80;;;;;;5112464;28;20122;-82
2023/02/13 08:03:58;;;;;;;33.53;20.00;;;8.40;96.80;;;;;;5129507;27;20081;-81
2023/02/13 08:06:24;;;;;;;35.87;20.77;;;8.40;96.80;;;;;;5128620;27;20116;-81
2023/02/13 08:11:52;;;;;;;35.37;21.07;;;8.50;96.90;;;;;;5096411;28;20077;-81
2023/02/13 08:14:33;;;;;;;33.97;20.23;;;8.40;96.90;;;;;;5072806;28;20024;-81
2023/02/13 08:17:02;;;;;;;33.27;19.63;;;8.40;97.00;;;;;;5096237;28;20036;-81
2023/02/13 08:19:28;;;;;;;36.87;20.97;;;8.40;97.00;;;;;;5111048;28;20373;-80
2023/02/13 08:21:54;;;;;;;34.33;19.90;;;8.40;97.10;;;;;;5112004;28;20380;-81
2023/02/13 08:24:20;;;;;;;34.80;20.20;;;8.40;97.20;;;;;;5095050;28;20024;-81
2023/02/13 08:26:46;;;;;;;35.23;21.53;;;8.40;97.30;;;;;;5094825;28;20036;-81
2023/02/13 08:29:11;;;;;;;32.80;19.97;;;8.50;97.40;;;;;;5111714;28;20524;-81
2023/02/13 08:31:37;;;;;;;31.10;19.70;;;8.40;97.40;;;;;;5111514;28;20434;-81
2023/02/13 08:34:03;;;;;;;38.80;21.63;;;8.50;97.50;;;;;;5112390;28;20038;-81
2023/02/13 08:36:30;;;;;;;33.07;20.63;;;8.60;97.60;;;;;;5111556;28;20028;-82
2023/02/13 08:38:55;;;;;;;33.63;20.10;;;8.60;97.70;;;;;;5095846;28;20028;-81
2023/02/13 08:41:21;;;;;;;32.23;19.60;;;8.60;97.70;;;;;;5094385;28;20067;-82
2023/02/13 08:43:48;;;;;;;35.63;20.93;;;8.60;97.70;;;;;;5111643;28;20024;-81
2023/02/13 08:46:15;;;;;;;35.27;21.30;;;8.70;97.90;;;;;;5094341;28;20028;-81
2023/02/13 08:48:41;;;;;;;37.53;21.03;;;8.70;97.90;;;;;;5094623;28;20026;-81
2023/02/13 08:51:08;;;;;;;34.00;19.77;;;8.80;98.00;;;;;;5094607;28;20118;-82
2023/02/13 08:53:34;;;;;;;36.40;21.60;;;8.80;98.00;;;;;;5094001;28;20081;-81
2023/02/13 08:56:00;;;;;;;33.43;20.77;;;8.90;98.00;;;;;;5094360;28;20044;-82
2023/02/13 08:58:26;;;;;;;35.60;21.47;;;8.90;98.00;;;;;;5128084;27;20070;-82
2023/02/13 09:00:52;;;;;;;34.70;20.97;;;9.00;98.00;;;;;;5111070;28;20473;-82
2023/02/13 09:03:17;;;;;;;36.43;21.23;;;9.00;98.00;;;;;;5094248;28;20488;-82
2023/02/13 09:05:43;;;;;;;35.13;20.33;;;9.10;98.00;;;;;;5093585;28;20122;-80
2023/02/13 09:08:10;;;;;;;34.13;19.53;;;9.10;98.00;;;;;;5111466;28;20024;-81
2023/02/13 09:10:37;;;;;;;32.23;19.40;;;9.20;98.00;;;;;;5128082;27;20028;-82
2023/02/13 09:13:03;;;;;;;30.90;18.97;;;9.20;98.00;;;;;;5094226;28;20036;-82
2023/02/13 09:15:29;;;;;;;31.73;18.90;;;9.30;97.90;;;;;;5128177;27;20107;-82
2023/02/13 09:17:55;;;;;;;32.23;19.10;;;9.30;97.90;;;;;;5094501;28;20021;-82
2023/02/13 09:20:21;;;;;;;28.47;17.27;;;9.40;97.90;;;;;;5128030;27;20032;-81
2023/02/13 09:22:47;;;;;;;30.00;18.63;;;9.50;97.80;;;;;;5093250;28;20503;-82
2023/02/13 09:25:13;;;;;;;30.53;17.87;;;9.50;97.70;;;;;;5110661;28;20120;-81
2023/02/13 09:27:38;;;;;;;32.13;18.23;;;9.60;97.70;;;;;;5093477;28;20028;-81
2023/02/13 09:30:06;;;;;;;27.53;16.47;;;9.70;97.50;;;;;;5128169;27;20024;-81
2023/02/13 09:32:33;;;;;;;30.53;18.60;;;9.80;97.50;;;;;;5093453;28;20365;-81
2023/02/13 09:34:59;;;;;;;30.27;18.13;;;9.90;97.40;;;;;;5110562;28;20035;-82
2023/02/13 09:37:25;;;;;;;26.40;16.60;;;10.00;97.20;;;;;;5110199;28;20379;-82
2023/02/13 09:39:52;;;;;;;29.03;17.87;;;10.00;97.20;;;;;;5094836;28;20085;-82
2023/02/13 09:42:27;;;;;;;29.60;17.07;;;10.10;97.00;;;;;;5093578;28;20537;-82
2023/02/13 09:44:57;;;;;;;28.03;16.67;;;10.20;96.90;;;;;;5095654;28;20081;-82
2023/02/13 09:47:35;;;;;;;31.07;17.63;;;10.30;96.80;;;;;;5094158;28;20028;-82
2023/02/13 09:50:03;;;;;;;29.50;16.80;;;10.30;96.50;;;;;;5093866;28;20029;-82
2023/02/13 09:52:33;;;;;;;30.20;16.23;;;10.40;96.50;;;;;;5094508;28;20032;-82
2023/02/13 09:55:00;;;;;;;27.17;16.80;;;10.50;96.40;;;;;;5092670;28;20028;-83
2023/02/13 09:57:38;;;;;;;27.67;17.05;;;10.60;96.10;;;;;;5110288;28;20035;-82
2023/02/13 10:00:39;;;;;;;27.03;16.90;;;10.70;95.70;;;;;;5127435;27;20484;-82
2023/02/13 10:03:26;;;;;;;24.50;15.27;;;10.90;95.80;;;;;;5088961;28;20034;-83
2023/02/13 10:05:58;;;;;;;25.85;16.50;;;11.20;95.70;;;;;;5093059;28;20496;-82
2023/02/13 10:08:33;;;;;;;22.75;13.65;;;11.60;95.50;;;;;;5092909;28;20053;-83
2023/02/13 10:11:32;;;;;;;24.55;13.75;;;12.00;95.40;;;;;;5094599;28;20107;-83
2023/02/13 10:14:07;;;;;;;19.35;13.10;;;12.50;95.10;;;;;;5094003;28;20103;-83
2023/02/13 10:17:14;;;;;;;19.65;12.73;;;13.10;94.80;;;;;;5092946;28;20024;-83
2023/02/13 10:19:43;;;;;;;18.50;10.80;;;13.70;94.80;;;;;;5084913;28;20085;-83
2023/02/13 10:22:34;;;;;;;14.52;9.43;;;14.50;95.70;;;;;;5093743;28;20161;-83
2023/02/13 10:25:21;;;;;;;13.25;8.70;;;15.20;95.10;;;;;;5126673;27;20048;-83
2023/02/13 10:28:02;;;;;;;11.45;8.05;;;16.00;95.00;;;;;;5092543;28;20060;-83
2023/02/13 10:30:41;;;;;;;13.45;9.30;;;16.80;95.00;;;;;;5092196;28;20120;-84
2023/02/13 10:33:18;;;;;;;12.48;8.45;;;17.60;93.50;;;;;;5126311;27;20380;-83
2023/02/13 10:35:56;;;;;;;11.20;7.80;;;18.30;91.40;;;;;;5092101;28;20027;-80
2023/02/13 10:38:23;;;;;;;11.52;8.30;;;18.80;87.20;;;;;;5126262;27;20020;-83
2023/02/13 10:41:07;;;;;;;11.55;7.57;;;19.30;84.70;;;;;;5093832;28;20072;-83
2023/02/13 10:43:51;;;;;;;10.77;7.82;;;19.80;81.80;;;;;;5126330;27;20055;-84
2023/02/13 10:46:28;;;;;;;11.43;9.02;;;20.20;78.30;;;;;;5093886;28;20059;-83
2023/02/13 10:49:22;;;;;;;11.77;8.50;;;20.60;73.70;;;;;;5093465;28;20031;-83
2023/02/13 10:51:58;;;;;;;10.23;7.50;;;20.80;69.60;;;;;;5088627;28;20486;-83
2023/02/13 10:54:35;;;;;;;10.95;8.38;;;21.10;68.60;;;;;;5092310;28;20020;-83
2023/02/13 10:57:21;;;;;;;10.68;7.50;;;21.50;66.90;;;;;;5093422;28;20024;-83
2023/02/13 11:00:15;;;;;;;9.93;7.25;;;21.60;65.90;;;;;;5092593;28;20547;-83
2023/02/13 11:02:41;;;;;;;11.75;7.32;;;21.80;65.00;;;;;;5092084;28;20028;-81
2023/02/13 11:05:21;;;;;;;35.05;10.65;;;22.10;63.40;;;;;;5109127;28;20024;-84
2023/02/13 11:07:47;;;;;;;28.73;8.57;;;22.30;60.10;;;;;;5091922;28;20028;-83
2023/02/13 11:10:21;;;;;;;11.60;8.70;;;22.40;59.30;;;;;;5093182;28;20118;-81
2023/02/13 11:12:47;;;;;;;;;;;22.60;57.80;;;;;;5092346;28;20363;-81
2023/02/13 11:15:26;;;;;;;10.32;6.13;;;22.70;58.40;;;;;;5093399;28;20375;-83
2023/02/13 11:17:57;;;;;;;15.20;9.68;;;23.00;58.50;;;;;;5093158;28;20063;-81
2023/02/13 11:20:34;;;;;;;10.27;7.70;;;23.20;57.40;;;;;;5093070;28;20040;-81
2023/02/13 11:23:29;;;;;;;10.10;7.53;;;23.40;57.20;;;;;;5091558;28;20114;-81
2023/02/13 11:25:58;;;;;;;10.05;7.78;;;23.80;56.00;;;;;;5126270;27;20040;-81
2023/02/13 11:28:26;;;;;;;10.63;7.95;;;24.10;56.00;;;;;;5091769;28;20032;-81
2023/02/13 11:30:52;;;;;;;10.05;6.05;;;24.40;54.60;;;;;;5093815;28;20068;-81
2023/02/13 11:33:22;;;;;;;9.57;7.72;;;24.70;54.30;;;;;;5074705;28;20531;-81
2023/02/13 11:35:48;;;;;;;10.70;7.78;;;24.90;52.90;;;;;;5091440;28;20024;-81
2023/02/13 11:38:19;;;;;;;10.43;7.22;;;25.10;52.50;;;;;;5093188;28;20028;-80
2023/02/13 11:40:50;;;;;;;8.05;6.13;;;25.30;51.90;;;;;;5125560;27;20044;-81
2023/02/13 11:43:17;;;;;;;9.75;7.03;;;25.50;51.30;;;;;;5091759;28;20024;-81
2023/02/13 11:45:43;;;;;;;9.27;7.28;;;25.80;50.90;;;;;;5092578;28;20040;-82
2023/02/13 11:48:19;;;;;;;10.80;6.93;;;25.90;50.60;;;;;;5109029;28;20068;-81
2023/02/13 11:50:51;;;;;;;8.88;6.55;;;26.10;49.70;;;;;;5092521;28;20453;-81
2023/02/13 11:53:38;;;;;;;9.43;7.50;;;26.10;49.70;;;;;;5091336;28;20033;-81
2023/02/13 11:56:13;;;;;;;11.90;7.13;;;26.20;49.10;;;;;;5093066;28;20036;-81
2023/02/13 11:58:40;;;;;;;8.82;6.65;;;26.40;48.90;;;;;;5091281;28;20036;-81
2023/02/13 12:01:21;;;;;;;9.10;6.65;;;26.50;48.90;;;;;;5091288;28;20115;-81
2023/02/13 12:04:15;;;;;;;7.68;5.82;;;26.80;47.50;;;;;;5092103;28;20036;-82
2023/02/13 12:07:09;;;;;;;10.50;7.00;;;27.00;46.80;;;;;;5090146;28;20417;-81
2023/02/13 12:09:36;;;;;;;;;;;27.30;46.00;;;;;;5115715;28;20025;-81
2023/02/13 12:12:04;;;;;;;8.50;6.18;;;27.40;46.40;;;;;;5092280;28;19904;-81
2023/02/13 12:14:36;;;;;;;10.48;6.55;;;27.50;46.20;;;;;;5092338;28;20099;-81
2023/02/13 12:17:18;;;;;;;9.38;6.60;;;27.50;45.60;;;;;;5091601;28;20032;-81
2023/02/13 12:19:48;;;;;;;8.98;6.05;;;27.60;44.10;;;;;;5096659;28;20036;-82
2023/02/13 12:22:30;;;;;;;9.65;6.45;;;27.70;44.00;;;;;;5094436;28;20068;-81
2023/02/13 12:25:11;;;;;;;11.18;7.68;;;27.60;43.30;;;;;;5094254;28;20458;-82
2023/02/13 12:27:47;;;;;;;10.13;5.82;;;27.50;42.80;;;;;;5128893;27;20028;-82
2023/02/13 12:30:33;;;;;;;8.80;7.03;;;27.40;42.90;;;;;;5096271;28;20086;-82
2023/02/13 12:33:15;;;;;;;9.02;6.18;;;27.40;43.20;;;;;;5095175;28;20043;-82
2023/02/13 12:35:51;;;;;;;9.07;6.60;;;27.50;43.10;;;;;;5095863;28;20023;-83
2023/02/13 12:38:50;;;;;;;9.80;7.03;;;27.60;42.90;;;;;;5094675;28;20067;-83
2023/02/13 12:41:35;;;;;;;8.13;6.10;;;27.70;42.50;;;;;;5128543;27;20511;-82
2023/02/13 12:44:22;;;;;;;9.75;6.53;;;27.80;43.10;;;;;;5096137;28;20024;-83
2023/02/13 12:47:06;;;;;;;8.32;6.28;;;27.90;42.90;;;;;;5128618;27;20601;-83
2023/02/13 12:49:48;;;;;;;8.75;6.03;;;28.20;42.40;;;;;;5094789;28;20032;-83
2023/02/13 12:52:35;;;;;;;8.80;6.33;;;28.40;42.30;;;;;;5128809;27;20495;-82
2023/02/13 12:55:16;;;;;;;9.15;6.05;;;28.60;42.10;;;;;;5095685;28;20324;-82
2023/02/13 12:58:23;;;;;;;10.38;6.18;;;28.80;42.20;;;;;;5096272;28;20093;-81
2023/02/13 13:01:17;;;;;;;8.40;6.20;;;29.00;42.10;;;;;;5090546;28;20079;-82
2023/02/13 13:03:42;;;;;;;;;;;29.00;41.70;;;;;;5093790;28;20020;-83
2023/02/13 13:06:22;;;;;;;8.27;6.22;;;29.20;40.60;;;;;;5093944;28;19911;-82
2023/02/13 13:09:12;;;;;;;9.77;6.20;;;29.10;40.40;;;;;;5092541;28;20032;-81
2023/02/13 13:11:46;;;;;;;12.23;6.38;;;29.10;40.20;;;;;;5093373;28;20020;-82
2023/02/13 13:14:18;;;;;;;10.95;7.70;;;29.20;40.50;;;;;;5093919;28;20028;-82
2023/02/13 13:16:55;;;;;;;10.52;7.55;;;29.20;40.00;;;;;;5094766;28;20034;-82
2023/02/13 13:19:41;;;;;;;11.07;6.68;;;29.10;39.60;;;;;;5092920;28;20035;-82
2023/02/13 13:22:25;;;;;;;9.18;6.60;;;29.10;39.70;;;;;;5094577;28;20039;-82
2023/02/13 13:24:54;;;;;;;9.65;6.45;;;29.20;39.90;;;;;;5093616;28;20036;-81
2023/02/13 13:27:27;;;;;;;7.88;5.65;;;29.30;40.40;;;;;;5113369;27;20036;-81
2023/02/13 13:30:21;;;;;;;9.52;6.07;;;29.40;40.20;;;;;;5092104;28;20020;-82
2023/02/13 13:32:52;;;;;;;8.98;5.70;;;29.60;39.80;;;;;;5076505;28;21211;-82
2023/02/13 13:35:19;;;;;;;8.80;6.53;;;29.70;39.70;;;;;;5094097;28;20020;-82
2023/02/13 13:38:18;;;;;;;9.13;6.75;;;29.90;39.20;;;;;;5115835;27;20145;-82
2023/02/13 13:41:03;;;;;;;10.50;6.47;;;29.80;38.00;;;;;;5081913;28;20051;-82
2023/02/13 13:43:51;;;;;;;9.40;5.75;;;29.60;37.90;;;;;;5120092;27;20130;-82